sensor_id;sensor_type;location;lat;lon;timestamp;pressure;altitude;pressure_sealevel;temperature;humidity
53522;BME280;39398;48.382;9.802;2023-04-25T00:04:03;93172.31;;;7.37;100.00
53522;BME280;39398;48.382;9.802;2023-04-25T00:09:07;93170.22;;;7.47;99.56
53522;BME280;39398;48.382;9.802;2023-04-25T00:14:22;93163.56;;;7.51;100.00
53522;BME280;39398;48.382;9.802;2023-04-25T00:19:25;93150.13;;;7.67;100.00
53522;BME280;39398;48.382;9.802;2023-04-25T00:24:30;93159.97;;;7.59;97.79
53522;BME280;39398;48.382;9.802;2023-04-25T00:29:39;93172.78;;;7.40;100.00
53522;BME280;39398;48.382;9.802;2023-04-25T00:34:41;93171.38;;;7.16;100.00
53522;BME280;39398;48.382;9.802;2023-04-25T00:39:44;93166.53;;;7.20;100.00
53522;BME280;39398;48.382;9.802;2023-04-25T00:44:46;93166.88;;;6.89;100.00
53522;BME280;39398;48.382;9.802;2023-04-25T00:50:20;93155.00;;;6.71;100.00
53522;BME280;39398;48.382;9.802;2023-04-25T00:55:23;93139.38;;;6.85;100.00
53522;BME280;39398;48.382;9.802;2023-04-25T01:00:24;93138.19;;;6.66;100.00
53522;BME280;39398;48.382;9.802;2023-04-25T01:05:28;93133.72;;;6.81;100.00
53522;BME280;39398;48.382;9.802;2023-04-25T01:10:34;93132.13;;;7.08;100.00
53522;BME280;39398;48.382;9.802;2023-04-25T01:15:35;93132.53;;;7.05;100.00
53522;BME280;39398;48.382;9.802;2023-04-25T01:20:38;93139.88;;;7.16;100.00
53522;BME280;39398;48.382;9.802;2023-04-25T01:25:50;93131.22;;;7.22;100.00
53522;BME280;39398;48.382;9.802;2023-04-25T01:30:54;93123.41;;;7.29;100.00
53522;BME280;39398;48.382;9.802;2023-04-25T01:35:59;93119.59;;;7.32;100.00
53522;BME280;39398;48.382;9.802;2023-04-25T01:41:08;93126.75;;;7.16;100.00
53522;BME280;39398;48.382;9.802;2023-04-25T01:46:12;93118.50;;;7.19;100.00
53522;BME280;39398;48.382;9.802;2023-04-25T01:51:14;93107.06;;;7.34;100.00
53522;BME280;39398;48.382;9.802;2023-04-25T01:56:17;93112.78;;;7.37;100.00
53522;BME280;39398;48.382;9.802;2023-04-25T02:01:20;93085.56;;;7.52;100.00
53522;BME280;39398;48.382;9.802;2023-04-25T02:06:22;93068.13;;;7.37;98.86
53522;BME280;39398;48.382;9.802;2023-04-25T02:11:25;93090.91;;;7.02;100.00
53522;BME280;39398;48.382;9.802;2023-04-25T02:16:29;93109.56;;;7.14;100.00
53522;BME280;39398;48.382;9.802;2023-04-25T02:21:32;93122.06;;;7.12;100.00
53522;BME280;39398;48.382;9.802;2023-04-25T02:26:35;93121.88;;;6.92;100.00
53522;BME280;39398;48.382;9.802;2023-04-25T02:31:39;93111.75;;;6.89;100.00
53522;BME280;39398;48.382;9.802;2023-04-25T02:36:42;93107.63;;;7.01;100.00
53522;BME280;39398;48.382;9.802;2023-04-25T02:47:48;93103.66;;;7.05;100.00
53522;BME280;39398;48.382;9.802;2023-04-25T02:52:50;93093.72;;;7.01;100.00
53522;BME280;39398;48.382;9.802;2023-04-25T02:57:54;93098.16;;;7.00;100.00
53522;BME280;39398;48.382;9.802;2023-04-25T03:02:57;93096.91;;;6.53;100.00
53522;BME280;39398;48.382;9.802;2023-04-25T03:07:59;93095.53;;;6.57;100.00
53522;BME280;39398;48.382;9.802;2023-04-25T03:13:08;93096.00;;;6.61;100.00
53522;BME280;39398;48.382;9.802;2023-04-25T03:18:19;93090.81;;;6.46;100.00
53522;BME280;39398;48.382;9.802;2023-04-25T03:23:20;93082.38;;;6.72;100.00
53522;BME280;39398;48.382;9.802;2023-04-25T03:28:22;93085.09;;;6.85;100.00
53522;BME280;39398;48.382;9.802;2023-04-25T03:33:25;93086.06;;;6.78;100.00
53522;BME280;39398;48.382;9.802;2023-04-25T03:38:29;93081.66;;;6.85;100.00
53522;BME280;39398;48.382;9.802;2023-04-25T03:43:31;93080.28;;;6.89;100.00
53522;BME280;39398;48.382;9.802;2023-04-25T03:48:34;93076.13;;;6.73;100.00
53522;BME280;39398;48.382;9.802;2023-04-25T03:53:35;93081.81;;;6.55;100.00
53522;BME280;39398;48.382;9.802;2023-04-25T03:58:39;93083.69;;;6.61;100.00
53522;BME280;39398;48.382;9.802;2023-04-25T04:03:42;93084.88;;;6.80;100.00
53522;BME280;39398;48.382;9.802;2023-04-25T04:08:44;93090.06;;;6.73;100.00
53522;BME280;39398;48.382;9.802;2023-04-25T04:13:45;93079.31;;;6.68;100.00
53522;BME280;39398;48.382;9.802;2023-04-25T04:18:51;93087.28;;;6.60;100.00
53522;BME280;39398;48.382;9.802;2023-04-25T04:23:53;93092.69;;;6.73;100.00
53522;BME280;39398;48.382;9.802;2023-04-25T04:28:55;93087.28;;;6.60;100.00
53522;BME280;39398;48.382;9.802;2023-04-25T04:40:00;93098.53;;;6.33;100.00
53522;BME280;39398;48.382;9.802;2023-04-25T04:45:03;93089.56;;;6.42;100.00
53522;BME280;39398;48.382;9.802;2023-04-25T04:50:05;93094.44;;;6.45;100.00
53522;BME280;39398;48.382;9.802;2023-04-25T04:55:42;93108.41;;;6.52;100.00
53522;BME280;39398;48.382;9.802;2023-04-25T05:00:45;93109.22;;;6.52;100.00
53522;BME280;39398;48.382;9.802;2023-04-25T05:05:47;93121.38;;;6.60;100.00
53522;BME280;39398;48.382;9.802;2023-04-25T05:10:52;93114.56;;;6.44;100.00
53522;BME280;39398;48.382;9.802;2023-04-25T05:15:54;93089.84;;;6.53;100.00
53522;BME280;39398;48.382;9.802;2023-04-25T05:20:58;93092.00;;;6.65;100.00
53522;BME280;39398;48.382;9.802;2023-04-25T05:26:01;93086.50;;;6.81;100.00
53522;BME280;39398;48.382;9.802;2023-04-25T05:31:03;93094.31;;;6.74;100.00
53522;BME280;39398;48.382;9.802;2023-04-25T05:36:07;93109.28;;;6.81;100.00
53522;BME280;39398;48.382;9.802;2023-04-25T05:41:11;93109.97;;;6.89;100.00
53522;BME280;39398;48.382;9.802;2023-04-25T05:46:15;93105.59;;;6.96;100.00
53522;BME280;39398;48.382;9.802;2023-04-25T05:51:19;93100.78;;;7.00;100.00
53522;BME280;39398;48.382;9.802;2023-04-25T05:56:22;93117.56;;;7.06;100.00
53522;BME280;39398;48.382;9.802;2023-04-25T06:01:24;93108.66;;;7.28;100.00
53522;BME280;39398;48.382;9.802;2023-04-25T06:06:28;93105.69;;;7.66;100.00
53522;BME280;39398;48.382;9.802;2023-04-25T06:11:33;93100.81;;;7.63;100.00
53522;BME280;39398;48.382;9.802;2023-04-25T06:16:35;93096.56;;;7.68;100.00
53522;BME280;39398;48.382;9.802;2023-04-25T06:21:37;93094.78;;;8.10;100.00
53522;BME280;39398;48.382;9.802;2023-04-25T06:26:40;93092.31;;;8.77;100.00
53522;BME280;39398;48.382;9.802;2023-04-25T06:31:43;93097.63;;;9.23;100.00
53522;BME280;39398;48.382;9.802;2023-04-25T06:36:45;93092.88;;;9.72;100.00
53522;BME280;39398;48.382;9.802;2023-04-25T06:41:48;93094.66;;;9.91;100.00
53522;BME280;39398;48.382;9.802;2023-04-25T06:46:51;93079.13;;;10.35;95.58
53522;BME280;39398;48.382;9.802;2023-04-25T06:51:53;93084.38;;;9.70;100.00
53522;BME280;39398;48.382;9.802;2023-04-25T06:56:56;93087.91;;;8.91;100.00
53522;BME280;39398;48.382;9.802;2023-04-25T07:01:58;93086.06;;;9.31;100.00
53522;BME280;39398;48.382;9.802;2023-04-25T07:06:59;93100.41;;;8.55;100.00
53522;BME280;39398;48.382;9.802;2023-04-25T07:12:06;93100.19;;;8.57;100.00
53522;BME280;39398;48.382;9.802;2023-04-25T07:17:07;93095.78;;;8.97;100.00
53522;BME280;39398;48.382;9.802;2023-04-25T07:22:09;93097.00;;;9.21;100.00
53522;BME280;39398;48.382;9.802;2023-04-25T07:27:15;93095.91;;;8.43;100.00
53522;BME280;39398;48.382;9.802;2023-04-25T07:32:23;93100.19;;;8.57;100.00
53522;BME280;39398;48.382;9.802;2023-04-25T07:37:25;93086.03;;;8.65;96.21
53522;BME280;39398;48.382;9.802;2023-04-25T07:42:30;93087.91;;;9.04;97.49
53522;BME280;39398;48.382;9.802;2023-04-25T07:47:31;93093.31;;;8.01;100.00
53522;BME280;39398;48.382;9.802;2023-04-25T07:52:33;93089.97;;;8.34;100.00
53522;BME280;39398;48.382;9.802;2023-04-25T07:57:36;93094.53;;;8.67;100.00
53522;BME280;39398;48.382;9.802;2023-04-25T08:02:38;93105.00;;;8.40;100.00
53522;BME280;39398;48.382;9.802;2023-04-25T08:07:40;93110.41;;;8.32;100.00
53522;BME280;39398;48.382;9.802;2023-04-25T08:12:43;93109.47;;;8.46;97.93
53522;BME280;39398;48.382;9.802;2023-04-25T08:17:44;93109.66;;;8.45;100.00
53522;BME280;39398;48.382;9.802;2023-04-25T08:22:46;93120.41;;;8.50;100.00
53522;BME280;39398;48.382;9.802;2023-04-25T08:27:49;93126.72;;;8.69;100.00
53522;BME280;39398;48.382;9.802;2023-04-25T08:32:53;93119.13;;;8.39;100.00
53522;BME280;39398;48.382;9.802;2023-04-25T08:37:55;93123.38;;;8.33;100.00
53522;BME280;39398;48.382;9.802;2023-04-25T08:43:07;93134.03;;;8.25;100.00
53522;BME280;39398;48.382;9.802;2023-04-25T08:48:12;93131.63;;;9.05;96.50
53522;BME280;39398;48.382;9.802;2023-04-25T08:53:15;93136.28;;;9.03;94.03
53522;BME280;39398;48.382;9.802;2023-04-25T08:58:19;93146.38;;;8.79;96.48
53522;BME280;39398;48.382;9.802;2023-04-25T09:03:22;93146.78;;;8.76;95.35
53522;BME280;39398;48.382;9.802;2023-04-25T09:08:24;93149.44;;;8.90;100.00
53522;BME280;39398;48.382;9.802;2023-04-25T09:13:28;93154.34;;;9.19;100.00
53522;BME280;39398;48.382;9.802;2023-04-25T09:18:32;93166.50;;;9.27;100.00
53522;BME280;39398;48.382;9.802;2023-04-25T09:23:39;93171.69;;;8.32;100.00
53522;BME280;39398;48.382;9.802;2023-04-25T09:28:43;93194.91;;;6.16;100.00
53522;BME280;39398;48.382;9.802;2023-04-25T09:33:45;93200.53;;;5.45;100.00
53522;BME280;39398;48.382;9.802;2023-04-25T09:38:52;93224.56;;;5.11;100.00
53522;BME280;39398;48.382;9.802;2023-04-25T09:43:57;93233.16;;;4.42;100.00
53522;BME280;39398;48.382;9.802;2023-04-25T09:49:06;93233.44;;;4.08;100.00
53522;BME280;39398;48.382;9.802;2023-04-25T09:54:08;93245.88;;;4.46;100.00
53522;BME280;39398;48.382;9.802;2023-04-25T09:59:12;93248.22;;;4.40;100.00
53522;BME280;39398;48.382;9.802;2023-04-25T10:04:16;93257.31;;;4.45;100.00
53522;BME280;39398;48.382;9.802;2023-04-25T10:09:22;93263.84;;;4.49;100.00
53522;BME280;39398;48.382;9.802;2023-04-25T10:14:28;93261.19;;;4.57;100.00
53522;BME280;39398;48.382;9.802;2023-04-25T10:19:32;93260.41;;;4.79;100.00
53522;BME280;39398;48.382;9.802;2023-04-25T10:24:34;93266.34;;;5.19;100.00
53522;BME280;39398;48.382;9.802;2023-04-25T10:29:41;93257.53;;;5.58;100.00
53522;BME280;39398;48.382;9.802;2023-04-25T10:34:45;93263.97;;;6.23;100.00
53522;BME280;39398;48.382;9.802;2023-04-25T10:39:46;93265.50;;;6.32;100.00
53522;BME280;39398;48.382;9.802;2023-04-25T10:45:04;93263.56;;;6.56;100.00
53522;BME280;39398;48.382;9.802;2023-04-25T10:50:08;93274.69;;;6.28;100.00
53522;BME280;39398;48.382;9.802;2023-04-25T10:55:12;93278.75;;;6.16;100.00
53522;BME280;39398;48.382;9.802;2023-04-25T11:00:18;93273.72;;;6.29;100.00
53522;BME280;39398;48.382;9.802;2023-04-25T11:05:23;93278.84;;;6.37;100.00
53522;BME280;39398;48.382;9.802;2023-04-25T11:10:32;93278.88;;;6.22;100.00
53522;BME280;39398;48.382;9.802;2023-04-25T11:15:35;93281.94;;;6.26;100.00
53522;BME280;39398;48.382;9.802;2023-04-25T11:20:38;93289.06;;;6.02;100.00
53522;BME280;39398;48.382;9.802;2023-04-25T11:25:40;93286.34;;;5.96;100.00
53522;BME280;39398;48.382;9.802;2023-04-25T11:30:49;93291.91;;;5.78;100.00
53522;BME280;39398;48.382;9.802;2023-04-25T11:35:52;93294.78;;;5.68;100.00
53522;BME280;39398;48.382;9.802;2023-04-25T11:40:55;93301.34;;;5.41;100.00
53522;BME280;39398;48.382;9.802;2023-04-25T11:46:00;93305.75;;;5.64;100.00
53522;BME280;39398;48.382;9.802;2023-04-25T11:51:04;93321.13;;;5.67;100.00
53522;BME280;39398;48.382;9.802;2023-04-25T11:56:09;93329.59;;;5.92;100.00
53522;BME280;39398;48.382;9.802;2023-04-25T12:01:28;93328.84;;;5.83;100.00
53522;BME280;39398;48.382;9.802;2023-04-25T12:06:37;93336.59;;;5.76;100.00
53522;BME280;39398;48.382;9.802;2023-04-25T12:11:43;93340.16;;;5.60;100.00
53522;BME280;39398;48.382;9.802;2023-04-25T12:16:47;93341.31;;;5.58;100.00
53522;BME280;39398;48.382;9.802;2023-04-25T12:21:50;93341.19;;;5.51;100.00
53522;BME280;39398;48.382;9.802;2023-04-25T12:27:15;93358.94;;;6.10;100.00
53522;BME280;39398;48.382;9.802;2023-04-25T12:32:18;93357.50;;;6.22;100.00
53522;BME280;39398;48.382;9.802;2023-04-25T12:37:21;93364.47;;;6.30;100.00
53522;BME280;39398;48.382;9.802;2023-04-25T12:42:23;93371.78;;;6.20;100.00
53522;BME280;39398;48.382;9.802;2023-04-25T12:47:26;93381.28;;;5.52;100.00
53522;BME280;39398;48.382;9.802;2023-04-25T12:52:28;93388.63;;;6.02;100.00
53522;BME280;39398;48.382;9.802;2023-04-25T12:57:29;93386.91;;;5.95;100.00
53522;BME280;39398;48.382;9.802;2023-04-25T13:02:32;93393.75;;;5.73;100.00
53522;BME280;39398;48.382;9.802;2023-04-25T13:07:34;93385.19;;;5.79;100.00
53522;BME280;39398;48.382;9.802;2023-04-25T13:12:41;93398.25;;;6.10;100.00
53522;BME280;39398;48.382;9.802;2023-04-25T13:17:44;93395.78;;;6.61;100.00
53522;BME280;39398;48.382;9.802;2023-04-25T13:22:48;93382.75;;;6.53;100.00
53522;BME280;39398;48.382;9.802;2023-04-25T13:27:49;93391.72;;;6.73;100.00
53522;BME280;39398;48.382;9.802;2023-04-25T13:32:53;93395.59;;;6.63;100.00
53522;BME280;39398;48.382;9.802;2023-04-25T13:37:55;93396.03;;;6.66;100.00
53522;BME280;39398;48.382;9.802;2023-04-25T13:42:57;93393.06;;;6.55;100.00
53522;BME280;39398;48.382;9.802;2023-04-25T13:48:00;93401.75;;;6.70;100.00
53522;BME280;39398;48.382;9.802;2023-04-25T13:53:02;93405.97;;;6.41;100.00
53522;BME280;39398;48.382;9.802;2023-04-25T13:58:04;93406.97;;;6.25;100.00
53522;BME280;39398;48.382;9.802;2023-04-25T14:03:10;93409.19;;;6.28;100.00
53522;BME280;39398;48.382;9.802;2023-04-25T14:08:17;93418.59;;;6.61;100.00
53522;BME280;39398;48.382;9.802;2023-04-25T14:13:19;93418.63;;;6.38;100.00
53522;BME280;39398;48.382;9.802;2023-04-25T14:18:25;93418.94;;;6.58;100.00
53522;BME280;39398;48.382;9.802;2023-04-25T14:23:29;93430.09;;;6.37;100.00
53522;BME280;39398;48.382;9.802;2023-04-25T14:28:31;93425.84;;;5.98;100.00
53522;BME280;39398;48.382;9.802;2023-04-25T14:33:34;93424.59;;;6.46;100.00
53522;BME280;39398;48.382;9.802;2023-04-25T14:38:35;93421.66;;;6.94;100.00
53522;BME280;39398;48.382;9.802;2023-04-25T14:43:37;93438.25;;;7.45;100.00
53522;BME280;39398;48.382;9.802;2023-04-25T14:48:43;93439.34;;;7.36;100.00
53522;BME280;39398;48.382;9.802;2023-04-25T14:53:44;93443.19;;;7.04;100.00
53522;BME280;39398;48.382;9.802;2023-04-25T14:58:46;93442.34;;;7.33;100.00
53522;BME280;39398;48.382;9.802;2023-04-25T15:03:50;93441.91;;;7.30;100.00
53522;BME280;39398;48.382;9.802;2023-04-25T15:08:53;93448.34;;;7.12;100.00
53522;BME280;39398;48.382;9.802;2023-04-25T15:13:55;93453.69;;;7.04;100.00
53522;BME280;39398;48.382;9.802;2023-04-25T15:18:58;93457.94;;;6.90;100.00
53522;BME280;39398;48.382;9.802;2023-04-25T15:24:07;93456.31;;;6.89;100.00
53522;BME280;39398;48.382;9.802;2023-04-25T15:29:11;93465.28;;;7.97;100.00
53522;BME280;39398;48.382;9.802;2023-04-25T15:34:14;93463.56;;;7.32;100.00
53522;BME280;39398;48.382;9.802;2023-04-25T15:39:16;93457.13;;;7.34;100.00
53522;BME280;39398;48.382;9.802;2023-04-25T15:44:18;93461.31;;;6.99;100.00
53522;BME280;39398;48.382;9.802;2023-04-25T15:49:22;93461.66;;;6.96;100.00
53522;BME280;39398;48.382;9.802;2023-04-25T15:54:23;93463.16;;;6.75;100.00
53522;BME280;39398;48.382;9.802;2023-04-25T15:59:32;93469.72;;;7.09;100.00
53522;BME280;39398;48.382;9.802;2023-04-25T16:04:40;93465.78;;;6.75;100.00
53522;BME280;39398;48.382;9.802;2023-04-25T16:09:42;93471.31;;;7.40;100.00
53522;BME280;39398;48.382;9.802;2023-04-25T16:14:43;93467.28;;;7.74;100.00
53522;BME280;39398;48.382;9.802;2023-04-25T16:19:46;93470.22;;;7.49;100.00
53522;BME280;39398;48.382;9.802;2023-04-25T16:24:49;93473.41;;;7.44;100.00
53522;BME280;39398;48.382;9.802;2023-04-25T16:29:51;93474.78;;;7.40;100.00
53522;BME280;39398;48.382;9.802;2023-04-25T16:34:54;93479.53;;;7.66;100.00
53522;BME280;39398;48.382;9.802;2023-04-25T16:39:59;93476.84;;;7.45;100.00
53522;BME280;39398;48.382;9.802;2023-04-25T16:45:01;93484.34;;;7.63;100.00
53522;BME280;39398;48.382;9.802;2023-04-25T16:50:05;93489.84;;;7.68;100.00
53522;BME280;39398;48.382;9.802;2023-04-25T16:55:08;93492.94;;;7.57;100.00
53522;BME280;39398;48.382;9.802;2023-04-25T17:00:10;93479.75;;;7.20;100.00
53522;BME280;39398;48.382;9.802;2023-04-25T17:05:13;93495.75;;;7.55;100.00
53522;BME280;39398;48.382;9.802;2023-04-25T17:10:15;93485.72;;;7.44;100.00
53522;BME280;39398;48.382;9.802;2023-04-25T17:15:17;93487.06;;;7.40;100.00
53522;BME280;39398;48.382;9.802;2023-04-25T17:20:20;93487.50;;;7.58;100.00
53522;BME280;39398;48.382;9.802;2023-04-25T17:25:30;93488.94;;;7.76;100.00
53522;BME280;39398;48.382;9.802;2023-04-25T17:30:32;93490.34;;;7.78;100.00
53522;BME280;39398;48.382;9.802;2023-04-25T17:35:38;93490.66;;;7.68;100.00
53522;BME280;39398;48.382;9.802;2023-04-25T17:40:39;93493.44;;;7.31;100.00
53522;BME280;39398;48.382;9.802;2023-04-25T17:45:41;93496.97;;;7.38;100.00
53522;BME280;39398;48.382;9.802;2023-04-25T17:50:47;93512.34;;;7.41;100.00
53522;BME280;39398;48.382;9.802;2023-04-25T17:55:48;93509.63;;;7.19;100.00
53522;BME280;39398;48.382;9.802;2023-04-25T18:00:50;93518.19;;;6.98;100.00
53522;BME280;39398;48.382;9.802;2023-04-25T18:05:53;93533.84;;;6.92;100.00
53522;BME280;39398;48.382;9.802;2023-04-25T18:10:55;93539.38;;;6.97;100.00
53522;BME280;39398;48.382;9.802;2023-04-25T18:15:56;93541.91;;;6.90;100.00
53522;BME280;39398;48.382;9.802;2023-04-25T18:21:01;93554.63;;;6.79;100.00
53522;BME280;39398;48.382;9.802;2023-04-25T18:26:03;93561.25;;;6.74;100.00
53522;BME280;39398;48.382;9.802;2023-04-25T18:31:08;93577.03;;;6.66;100.00
53522;BME280;39398;48.382;9.802;2023-04-25T18:36:14;93582.28;;;6.66;100.00
53522;BME280;39398;48.382;9.802;2023-04-25T18:41:15;93588.16;;;5.83;100.00
53522;BME280;39398;48.382;9.802;2023-04-25T18:46:21;93605.06;;;5.17;100.00
53522;BME280;39398;48.382;9.802;2023-04-25T18:51:27;93609.22;;;4.95;100.00
53522;BME280;39398;48.382;9.802;2023-04-25T18:56:36;93619.16;;;4.75;100.00
53522;BME280;39398;48.382;9.802;2023-04-25T19:01:38;93630.59;;;4.65;100.00
53522;BME280;39398;48.382;9.802;2023-04-25T19:06:41;93633.38;;;4.80;100.00
53522;BME280;39398;48.382;9.802;2023-04-25T19:11:43;93640.91;;;4.75;100.00
53522;BME280;39398;48.382;9.802;2023-04-25T19:16:45;93637.63;;;4.57;100.00
53522;BME280;39398;48.382;9.802;2023-04-25T19:21:50;93648.91;;;4.65;100.00
53522;BME280;39398;48.382;9.802;2023-04-25T19:26:52;93649.81;;;4.24;100.00
53522;BME280;39398;48.382;9.802;2023-04-25T19:31:53;93638.09;;;4.28;100.00
53522;BME280;39398;48.382;9.802;2023-04-25T19:37:04;93647.69;;;4.19;100.00
53522;BME280;39398;48.382;9.802;2023-04-25T19:42:06;93641.72;;;4.51;100.00
53522;BME280;39398;48.382;9.802;2023-04-25T19:47:09;93646.91;;;4.43;100.00
53522;BME280;39398;48.382;9.802;2023-04-25T19:52:15;93649.41;;;4.61;100.00
53522;BME280;39398;48.382;9.802;2023-04-25T19:57:16;93653.34;;;4.89;100.00
53522;BME280;39398;48.382;9.802;2023-04-25T20:02:23;93657.91;;;5.04;100.00
53522;BME280;39398;48.382;9.802;2023-04-25T20:07:34;93656.94;;;4.88;100.00
53522;BME280;39398;48.382;9.802;2023-04-25T20:12:35;93664.47;;;5.08;100.00
53522;BME280;39398;48.382;9.802;2023-04-25T20:17:38;93662.47;;;5.10;100.00
53522;BME280;39398;48.382;9.802;2023-04-25T20:22:41;93667.31;;;4.39;100.00
53522;BME280;39398;48.382;9.802;2023-04-25T20:27:43;93659.47;;;4.39;100.00
53522;BME280;39398;48.382;9.802;2023-04-25T20:32:47;93674.00;;;4.34;100.00
53522;BME280;39398;48.382;9.802;2023-04-25T20:37:51;93673.19;;;4.25;100.00
53522;BME280;39398;48.382;9.802;2023-04-25T20:42:52;93675.03;;;4.65;100.00
53522;BME280;39398;48.382;9.802;2023-04-25T20:47:54;93674.25;;;4.57;100.00
53522;BME280;39398;48.382;9.802;2023-04-25T20:52:59;93681.13;;;4.66;100.00
53522;BME280;39398;48.382;9.802;2023-04-25T20:58:00;93682.75;;;4.75;100.00
53522;BME280;39398;48.382;9.802;2023-04-25T21:03:02;93686.84;;;4.78;100.00
53522;BME280;39398;48.382;9.802;2023-04-25T21:08:05;93687.19;;;4.83;100.00
53522;BME280;39398;48.382;9.802;2023-04-25T21:13:07;93688.81;;;4.84;100.00
53522;BME280;39398;48.382;9.802;2023-04-25T21:18:09;93687.16;;;4.75;100.00
53522;BME280;39398;48.382;9.802;2023-04-25T21:23:14;93685.72;;;5.05;100.00
53522;BME280;39398;48.382;9.802;2023-04-25T21:28:17;93692.41;;;5.24;100.00
53522;BME280;39398;48.382;9.802;2023-04-25T21:33:19;93687.81;;;5.26;100.00
53522;BME280;39398;48.382;9.802;2023-04-25T21:38:22;93687.00;;;5.33;100.00
53522;BME280;39398;48.382;9.802;2023-04-25T21:43:25;93688.81;;;5.25;100.00
53522;BME280;39398;48.382;9.802;2023-04-25T21:48:34;93691.25;;;5.34;100.00
53522;BME280;39398;48.382;9.802;2023-04-25T21:53:37;93693.72;;;5.03;100.00
53522;BME280;39398;48.382;9.802;2023-04-25T21:58:38;93704.00;;;4.97;100.00
53522;BME280;39398;48.382;9.802;2023-04-25T22:03:42;93703.34;;;4.78;100.00
53522;BME280;39398;48.382;9.802;2023-04-25T22:08:46;93700.88;;;4.60;100.00
53522;BME280;39398;48.382;9.802;2023-04-25T22:13:48;93706.25;;;4.51;100.00
53522;BME280;39398;48.382;9.802;2023-04-25T22:18:50;93712.44;;;4.50;100.00
53522;BME280;39398;48.382;9.802;2023-04-25T22:23:53;93710.16;;;4.55;100.00
53522;BME280;39398;48.382;9.802;2023-04-25T22:28:55;93716.66;;;4.42;100.00
53522;BME280;39398;48.382;9.802;2023-04-25T22:33:59;93713.19;;;4.34;100.00
53522;BME280;39398;48.382;9.802;2023-04-25T22:39:02;93715.31;;;4.22;100.00
53522;BME280;39398;48.382;9.802;2023-04-25T22:44:06;93725.06;;;4.12;100.00
53522;BME280;39398;48.382;9.802;2023-04-25T22:49:08;93731.19;;;4.37;100.00
53522;BME280;39398;48.382;9.802;2023-04-25T22:54:11;93722.22;;;4.39;100.00
53522;BME280;39398;48.382;9.802;2023-04-25T22:59:13;93717.47;;;4.35;100.00
53522;BME280;39398;48.382;9.802;2023-04-25T23:04:14;93717.78;;;3.89;100.00
53522;BME280;39398;48.382;9.802;2023-04-25T23:09:20;93730.50;;;4.27;100.00
53522;BME280;39398;48.382;9.802;2023-04-25T23:14:21;93731.97;;;4.29;100.00
53522;BME280;39398;48.382;9.802;2023-04-25T23:19:23;93725.50;;;3.99;100.00
53522;BME280;39398;48.382;9.802;2023-04-25T23:24:26;93740.31;;;3.90;100.00
53522;BME280;39398;48.382;9.802;2023-04-25T23:29:28;93738.13;;;3.78;100.00
53522;BME280;39398;48.382;9.802;2023-04-25T23:34:30;93733.78;;;3.94;100.00
53522;BME280;39398;48.382;9.802;2023-04-25T23:39:35;93739.38;;;4.00;100.00
53522;BME280;39398;48.382;9.802;2023-04-25T23:44:36;93741.50;;;3.96;100.00
53522;BME280;39398;48.382;9.802;2023-04-25T23:49:38;93743.16;;;4.05;100.00
53522;BME280;39398;48.382;9.802;2023-04-25T23:54:42;93729.63;;;3.76;100.00
53522;BME280;39398;48.382;9.802;2023-04-25T23:59:43;93735.53;;;3.52;100.00
